Paddock Lake, Wisconsin
Current Conditions -  °F | °C
As of 11:53 AM on Saturday 25 Oct 2014 (Local Time) from KENW Reporting Station
Clear Clear  
Wind Chill: 67°   Ceiling: Unl
Heat Index: 67°   Visibility: 10mi
Dew Point: 42°   Wind: 18mph
Humidity: 40%   Direction: 290°WNW
Pressure: 29.94"   Gusts: 22mph
Location:  42.5866°N, 88.1341°W
Report Text: KENW 251653Z 29016G19KT 10SM CLR 19/06 A2994 RMK AO2 SLP136 T01940056
Loading
Personal Weather Stations






























Interactive Weather Map
Tropical Storm Tracking
New forecast layout! Learn more

10-Day Weather Forecast

Advertisements
Track Severe Weather on mobile